Terminal Aerodrome Forecast
Issued by NWS

Home | Current Version | Previous Version | Text Only | Print | Product List | Glossary On
Versions: 1 2 3 4 5 6 7 8 9 10 11 12 13 14 15 16
000
FTUS45 KTFX 242300
TAFHLN
TAF
KHLN 242338Z 2500/2524 28012KT P6SM SCT070 BKN120
     FM250400 26008KT P6SM BKN070
     FM250900 VRB06KT P6SM VCSH SCT030 OVC050
     FM251100 VRB06KT 4SM -SN BR OVC030
     FM251500 26006KT 2SM -SN BR SCT015 OVC030=

USA.gov is the U.S. government's official web portal to all federal, state and local government web resources and services.